createdAt,value
2023-01-17T00:01:41.740Z,100.0
2023-01-17T00:07:13.433Z,100.0
2023-01-17T00:12:45.440Z,100.0
2023-01-17T00:18:16.853Z,100.0
2023-01-17T00:23:48.644Z,100.0
2023-01-17T00:29:20.348Z,100.0
2023-01-17T00:34:52.113Z,99.92
2023-01-17T00:40:23.902Z,99.76
2023-01-17T00:45:55.587Z,100.0
2023-01-17T00:51:27.259Z,98.86
2023-01-17T00:56:59.030Z,97.41
2023-01-17T01:02:37.447Z,97.71
2023-01-17T01:08:08.840Z,97.61
2023-01-17T01:13:40.643Z,97.38
2023-01-17T01:19:12.348Z,97.87
2023-01-17T01:24:43.999Z,96.96
2023-01-17T01:30:15.767Z,95.37
2023-01-17T01:35:47.542Z,95.07
2023-01-17T01:41:19.203Z,94.48
2023-01-17T01:46:50.722Z,94.04
2023-01-17T01:52:22.525Z,93.83
2023-01-17T01:57:54.455Z,93.5
2023-01-17T02:03:32.546Z,93.91
2023-01-17T02:09:08.184Z,93.41
2023-01-17T02:14:35.803Z,93.29
2023-01-17T02:20:07.553Z,92.37
2023-01-17T02:25:39.250Z,91.32
2023-01-17T02:31:11.195Z,90.99
2023-01-17T02:36:42.713Z,90.8
2023-01-17T02:42:14.504Z,90.66
2023-01-17T02:47:46.201Z,90.5
2023-01-17T02:53:18.048Z,91.42
2023-01-17T02:58:49.688Z,91.18
2023-01-17T03:04:25.864Z,91.47
2023-01-17T03:09:57.616Z,90.93
2023-01-17T03:15:29.279Z,90.62
2023-01-17T03:21:01.135Z,91.09
2023-01-17T03:26:32.779Z,90.71
2023-01-17T03:32:04.451Z,91.87
2023-01-17T03:37:36.203Z,93.92
2023-01-17T03:43:07.896Z,96.85
2023-01-17T03:48:39.593Z,100.0
2023-01-17T03:54:11.390Z,100.0
2023-01-17T03:59:43.094Z,100.0
2023-01-17T04:05:19.250Z,98.96
2023-01-17T04:10:51.607Z,99.0
2023-01-17T04:16:23.307Z,97.48
2023-01-17T04:21:55.315Z,96.7
2023-01-17T04:27:26.700Z,94.59
2023-01-17T04:32:58.378Z,93.48
2023-01-17T04:38:30.092Z,93.38
2023-01-17T04:44:01.760Z,93.1
2023-01-17T04:49:33.577Z,92.92
2023-01-17T04:55:05.186Z,93.71
2023-01-17T05:00:37.037Z,93.48
2023-01-17T05:06:13.098Z,93.29
2023-01-17T05:11:45.699Z,93.45
2023-01-17T05:17:16.634Z,93.0
2023-01-17T05:22:48.347Z,91.75
2023-01-17T05:28:20.119Z,91.13
2023-01-17T05:33:51.752Z,89.44
2023-01-17T05:39:23.796Z,86.56
2023-01-17T05:44:55.415Z,86.36
2023-01-17T05:50:26.893Z,84.81
2023-01-17T05:55:58.676Z,83.45
2023-01-17T06:01:30.423Z,83.2
2023-01-17T06:07:06.524Z,83.57
2023-01-17T06:12:38.307Z,83.27
2023-01-17T06:18:09.984Z,84.11
2023-01-17T06:23:41.725Z,82.72
2023-01-17T06:29:13.418Z,82.78
2023-01-17T06:34:45.121Z,81.94
2023-01-17T06:40:16.805Z,81.93
2023-01-17T06:45:51.524Z,79.96
2023-01-17T06:51:20.260Z,79.46
2023-01-17T06:56:52.052Z,78.94
2023-01-17T07:02:23.699Z,78.87
2023-01-17T07:08:01.786Z,77.99
2023-01-17T07:13:36.599Z,78.59
2023-01-17T07:19:05.270Z,79.39
2023-01-17T07:24:36.969Z,80.4
2023-01-17T07:30:08.552Z,81.2
2023-01-17T07:35:40.577Z,81.94
2023-01-17T07:41:12.147Z,82.19
2023-01-17T07:46:43.918Z,81.58
2023-01-17T07:52:18.460Z,81.47
2023-01-17T07:57:47.447Z,81.49
2023-01-17T08:03:19.383Z,81.54
2023-01-17T08:08:57.242Z,82.44
2023-01-17T08:14:28.954Z,83.77
2023-01-17T08:20:01.557Z,83.09
2023-01-17T08:25:32.378Z,83.64
2023-01-17T08:31:04.246Z,84.17
2023-01-17T08:36:35.905Z,84.84
2023-01-17T08:42:07.573Z,85.03
2023-01-17T08:47:39.356Z,86.44
2023-01-17T08:53:11.023Z,85.85
2023-01-17T08:58:43.674Z,86.41
2023-01-17T09:04:15.571Z,87.2
2023-01-17T09:09:51.622Z,87.03
2023-01-17T09:15:23.403Z,86.87
2023-01-17T09:20:55.538Z,86.55
2023-01-17T09:26:26.859Z,84.84
2023-01-17T09:31:58.567Z,85.64
2023-01-17T09:37:30.159Z,84.0
2023-01-17T09:43:02.664Z,81.84
2023-01-17T09:48:34.417Z,80.7
2023-01-17T09:54:06.065Z,81.78
2023-01-17T09:59:37.934Z,80.31
2023-01-17T10:05:09.717Z,81.38
2023-01-17T10:10:45.778Z,79.62
2023-01-17T10:16:17.599Z,79.29
2023-01-17T10:21:49.110Z,79.82
2023-01-17T10:27:20.922Z,80.47
2023-01-17T10:32:52.766Z,78.44
2023-01-17T10:38:24.398Z,77.69
2023-01-17T10:43:56.141Z,74.51
2023-01-17T10:49:27.881Z,75.25
2023-01-17T10:54:59.583Z,75.12
2023-01-17T11:00:31.412Z,73.23
2023-01-17T11:06:03.791Z,72.01
2023-01-17T11:11:41.740Z,69.06
2023-01-17T11:17:13.044Z,68.82
2023-01-17T11:22:44.729Z,68.11
2023-01-17T11:28:16.395Z,68.83
2023-01-17T11:33:48.161Z,71.0
2023-01-17T11:39:19.929Z,70.67
2023-01-17T11:44:51.591Z,68.73
2023-01-17T11:50:23.259Z,68.19
2023-01-17T11:55:54.956Z,69.05
2023-01-17T12:01:26.673Z,67.35
2023-01-17T12:06:59.000Z,68.06
2023-01-17T12:12:34.682Z,67.42
2023-01-17T12:18:06.946Z,66.89
2023-01-17T12:23:38.931Z,66.83
2023-01-17T12:29:10.484Z,65.54
2023-01-17T12:34:42.361Z,64.34
2023-01-17T12:40:13.929Z,65.67
2023-01-17T12:45:45.603Z,65.46
2023-01-17T12:51:17.373Z,64.95
2023-01-17T12:56:49.040Z,65.61
2023-01-17T13:02:20.901Z,64.17
2023-01-17T13:07:53.243Z,64.3
2023-01-17T13:13:29.668Z,65.33
2023-01-17T13:19:00.625Z,65.71
2023-01-17T13:24:32.182Z,65.05
2023-01-17T13:30:03.971Z,66.25
2023-01-17T13:35:35.629Z,64.97
2023-01-17T13:41:07.315Z,64.81
2023-01-17T13:46:39.253Z,65.42
2023-01-17T13:52:10.946Z,65.86
2023-01-17T13:57:42.643Z,65.22
2023-01-17T14:03:14.434Z,65.49
2023-01-17T14:08:46.681Z,65.81
2023-01-17T14:14:22.110Z,65.89
2023-01-17T14:19:53.777Z,65.37
2023-01-17T14:25:25.432Z,66.22
2023-01-17T14:30:57.121Z,66.29
2023-01-17T14:36:28.918Z,66.11
2023-01-17T14:42:00.793Z,65.45
2023-01-17T14:47:32.407Z,66.44
2023-01-17T14:53:04.125Z,65.17
2023-01-17T14:58:35.812Z,65.88
2023-01-17T15:04:07.567Z,65.37
2023-01-17T15:09:39.233Z,66.96
2023-01-17T15:15:15.412Z,66.11
2023-01-17T15:20:47.188Z,66.4
2023-01-17T15:26:19.867Z,68.41
2023-01-17T15:31:50.753Z,68.45
2023-01-17T15:37:22.554Z,67.02
2023-01-17T15:42:54.073Z,66.33
2023-01-17T15:48:25.894Z,66.47
2023-01-17T15:53:57.612Z,65.77
2023-01-17T15:59:29.361Z,65.56
2023-01-17T16:05:00.997Z,66.32
2023-01-17T16:10:32.754Z,66.53
2023-01-17T16:16:10.552Z,67.08
2023-01-17T16:21:40.505Z,68.26
2023-01-17T16:27:12.378Z,67.47
2023-01-17T16:32:44.207Z,66.49
2023-01-17T16:38:15.730Z,66.96
2023-01-17T16:43:47.498Z,68.43
2023-01-17T16:49:19.229Z,66.79
2023-01-17T16:54:50.925Z,68.05
2023-01-17T17:00:23.257Z,66.58
2023-01-17T17:05:54.415Z,67.96
2023-01-17T17:11:26.133Z,68.3
2023-01-17T17:17:04.307Z,68.46
2023-01-17T17:22:36.012Z,68.75
2023-01-17T17:28:07.948Z,67.76
2023-01-17T17:33:39.643Z,68.89
2023-01-17T17:39:11.145Z,68.42
2023-01-17T17:44:42.851Z,68.66
2023-01-17T17:50:15.304Z,70.34
2023-01-17T17:55:46.459Z,77.28
2023-01-17T18:01:18.571Z,84.7
2023-01-17T18:06:49.850Z,88.3
2023-01-17T18:12:21.560Z,90.89
2023-01-17T18:17:59.755Z,92.1
2023-01-17T18:23:31.690Z,93.9
2023-01-17T18:29:03.250Z,91.57
2023-01-17T18:34:34.943Z,93.38
2023-01-17T18:40:07.249Z,92.49
2023-01-17T18:45:38.387Z,90.62
2023-01-17T18:51:10.187Z,90.82
2023-01-17T18:56:41.882Z,93.16
2023-01-17T19:02:13.489Z,93.05
2023-01-17T19:07:45.708Z,94.0
2023-01-17T19:13:16.881Z,93.83
2023-01-17T19:18:55.033Z,93.74
2023-01-17T19:24:27.036Z,93.67
2023-01-17T19:29:59.031Z,94.77
2023-01-17T19:35:30.412Z,94.4
2023-01-17T19:41:02.050Z,95.06
2023-01-17T19:46:33.765Z,94.95
2023-01-17T19:52:05.408Z,95.56
2023-01-17T19:57:37.154Z,96.2
2023-01-17T20:03:09.443Z,96.65
2023-01-17T20:08:40.568Z,96.21
2023-01-17T20:14:12.437Z,95.92
2023-01-17T20:19:48.610Z,97.0
2023-01-17T20:25:20.363Z,96.73
2023-01-17T20:30:52.011Z,96.48
2023-01-17T20:36:24.133Z,96.8
2023-01-17T20:41:55.487Z,97.69
2023-01-17T20:47:27.650Z,98.28
2023-01-17T20:52:58.948Z,98.65
2023-01-17T20:58:30.584Z,98.24
2023-01-17T21:04:02.847Z,98.31
2023-01-17T21:09:33.999Z,98.84
2023-01-17T21:15:05.738Z,98.3
2023-01-17T21:20:41.934Z,98.55
2023-01-17T21:26:13.662Z,99.37
2023-01-17T21:31:45.425Z,100.0
2023-01-17T21:37:17.072Z,98.51
2023-01-17T21:42:48.732Z,97.77
2023-01-17T21:48:20.639Z,98.16
2023-01-17T21:53:52.290Z,97.63
2023-01-17T21:59:24.058Z,99.79
2023-01-17T22:04:55.727Z,99.24
2023-01-17T22:10:27.458Z,98.02
2023-01-17T22:15:59.534Z,98.44
2023-01-17T22:21:35.442Z,98.53
2023-01-17T22:27:07.279Z,99.27
2023-01-17T22:32:38.974Z,98.66
2023-01-17T22:38:11.941Z,98.28
2023-01-17T22:43:42.411Z,98.57
2023-01-17T22:49:14.219Z,98.27
2023-01-17T22:54:46.621Z,99.36
2023-01-17T23:00:17.668Z,98.79
2023-01-17T23:05:49.367Z,99.5
2023-01-17T23:11:20.901Z,99.37
2023-01-17T23:16:53.093Z,98.57
2023-01-17T23:22:28.971Z,97.9
2023-01-17T23:28:00.796Z,98.26
2023-01-17T23:33:33.152Z,98.09
2023-01-17T23:39:04.201Z,99.44
2023-01-17T23:44:35.833Z,99.6
2023-01-17T23:50:07.817Z,98.72
2023-01-17T23:55:39.612Z,97.82
